Terminal Aerodrome Forecast
Issued by NWS Sterling, VA

Current Version | Previous Version | Text Only | Print | Product List | Glossary Off
Versions: 1 2 3 4 5 6 7 8 9 10 11 12 13 14 15 16 17 18 19 20

000
FTUS41 KLWX 190538
TAFMRB
TAF
KMRB 190538Z 1906/2006 24005KT P6SM BKN250
     FM190700 02005KT P6SM BKN250
     FM191500 09009KT P6SM SCT200
     FM192200 10009KT P6SM -RA OVC090
     FM200100 09010KT 5SM -RA OVC030
     FM200300 07012KT 5SM -RA OVC010=

USA.gov is the U.S. government's official web portal to all federal, state and local government web resources and services.